Time;durP1;ratioP1;P1;durP2;ratioP2;P2;SDS_P1;SDS_P2;PMS_P1;PMS_P2;Temp;Humidity;BMP_temperature;BMP_pressure;BME280_temperature;BME280_humidity;BME280_pressure;Samples;Min_cycle;Max_cycle;Signal;HPM_P1;HPM_P2
2022/12/23 00:00:43;;;;;;;210.07;108.68;;;;;;;2.69;nan;94942.22;5092677;28;20283;-61
2022/12/23 00:03:11;;;;;;;209.20;107.27;;;;;;;2.64;nan;94943.91;5092708;28;20701;-60
2022/12/23 00:05:39;;;;;;;208.70;107.63;;;;;;;2.49;nan;94936.44;5092503;28;20201;-62
2022/12/23 00:08:08;;;;;;;211.40;107.00;;;;;;;2.38;nan;94940.69;5092378;28;20655;-61
2022/12/23 00:10:37;;;;;;;212.70;105.67;;;;;;;2.36;nan;94949.88;5092290;28;20767;-60
2022/12/23 00:15:48;;;;;;;195.40;100.67;;;;;;;2.27;nan;94948.25;5092097;28;20232;-60
2022/12/23 00:18:15;;;;;;;200.80;104.60;;;;;;;2.26;nan;94954.09;5092573;28;20259;-61
2022/12/23 00:20:41;;;;;;;194.27;98.60;;;;;;;2.26;nan;94963.28;5092010;28;20201;-60
2022/12/23 00:23:10;;;;;;;199.23;100.27;;;;;;;2.28;nan;94951.56;5092133;28;20205;-61
2022/12/23 00:25:43;;;;;;;224.30;109.33;;;;;;;2.28;nan;94956.59;5092092;28;20602;-62
2022/12/23 00:28:11;;;;;;;222.60;110.50;;;;;;;2.29;nan;94958.25;5092112;28;20208;-60
2022/12/23 00:30:38;;;;;;;229.63;113.80;;;;;;;2.29;nan;94953.25;5091857;28;20279;-60
2022/12/23 00:33:05;;;;;;;219.23;109.53;;;;;;;2.27;nan;94955.75;5091719;28;20194;-61
2022/12/23 00:35:32;;;;;;;220.87;111.43;;;;;;;2.32;nan;94958.25;5091796;28;20698;-60
2022/12/23 00:37:58;;;;;;;197.40;104.40;;;;;;;2.35;nan;94959.09;5091907;28;20251;-61
2022/12/23 00:43:10;;;;;;;210.17;103.80;;;;;;;2.30;nan;94954.91;5091744;28;20200;-61
2022/12/23 00:45:37;;;;;;;206.53;103.47;;;;;;;2.34;nan;94946.56;5091811;28;20206;-61
2022/12/23 00:50:51;;;;;;;193.10;96.70;;;;;;;2.33;nan;94939.88;5091428;28;20224;-61
2022/12/23 00:53:18;;;;;;;189.40;96.77;;;;;;;2.33;nan;94937.34;5091619;28;20278;-61
2022/12/23 00:55:47;;;;;;;186.93;100.20;;;;;;;2.45;nan;94954.03;5091389;28;20198;-61
2022/12/23 00:58:14;;;;;;;182.90;96.63;;;;;;;2.50;nan;94958.19;5090912;28;20198;-61
2022/12/23 01:06:09;;;;;;;174.20;88.63;;;;;;;2.52;nan;94959.00;5091334;28;20724;-61
2022/12/23 01:08:37;;;;;;;156.07;80.33;;;;;;;2.30;nan;94949.91;5091390;28;20204;-61
2022/12/23 01:11:07;;;;;;;166.15;84.07;;;;;;;2.23;nan;94951.59;5091105;28;20209;-62
2022/12/23 01:13:34;;;;;;;214.73;93.97;;;;;;;2.13;nan;94946.63;5090937;28;20257;-61
2022/12/23 01:16:02;;;;;;;200.30;97.27;;;;;;;2.03;nan;94938.28;5091122;28;20202;-61
2022/12/23 01:18:28;;;;;;;182.68;90.80;;;;;;;1.84;nan;94941.69;5090808;28;20686;-61
2022/12/23 01:20:55;;;;;;;204.77;100.90;;;;;;;1.85;nan;94936.66;5090774;28;20202;-61
2022/12/23 01:23:22;;;;;;;198.88;92.57;;;;;;;1.94;nan;94954.22;5090614;28;20583;-61
2022/12/23 01:25:56;;;;;;;187.90;87.83;;;;;;;2.15;nan;94949.97;5091250;28;20198;-61
2022/12/23 01:28:25;;;;;;;188.07;86.73;;;;;;;2.11;nan;94948.31;5090615;28;20584;-61
2022/12/23 01:30:51;;;;;;;176.43;86.27;;;;;;;2.25;nan;94941.56;5090858;28;20229;-61
2022/12/23 01:33:18;;;;;;;184.90;88.57;;;;;;;2.34;nan;94946.56;5090243;28;20225;-61
2022/12/23 01:35:45;;;;;;;175.60;82.87;;;;;;;2.43;nan;94949.03;5090564;28;20647;-61
2022/12/23 01:38:12;;;;;;;187.63;86.22;;;;;;;2.36;nan;94930.66;5090345;28;20669;-61
2022/12/23 01:40:41;;;;;;;164.93;80.90;;;;;;;2.43;nan;94936.50;5091156;28;20197;-61
2022/12/23 01:43:13;;;;;;;168.82;80.68;;;;;;;2.56;nan;94938.09;5090667;28;20201;-61
2022/12/23 01:45:42;;;;;;;163.75;80.80;;;;;;;2.69;nan;94939.72;5090253;28;20208;-61
2022/12/23 01:48:11;;;;;;;158.65;78.82;;;;;;;2.84;nan;94921.22;5090650;28;20198;-61
2022/12/23 01:50:42;;;;;;;177.18;84.25;;;;;;;2.82;nan;94904.50;5090105;28;20217;-60
2022/12/23 01:53:12;;;;;;;168.90;81.47;;;;;;;2.89;nan;94901.94;5090481;28;20194;-60
2022/12/23 01:55:45;;;;;;;181.95;84.65;;;;;;;2.54;nan;94901.31;5090668;28;20201;-61
2022/12/23 01:58:14;;;;;;;154.95;78.10;;;;;;;2.48;nan;94912.19;5090341;28;20517;-60
2022/12/23 02:03:42;;;;;;;171.13;88.25;;;;;;;2.78;nan;94900.31;5090180;28;20196;-61
2022/12/23 02:12:03;;;;;;;168.85;85.80;;;;;;;2.96;nan;94893.53;5094358;28;20200;-61
2022/12/23 02:17:42;;;;;;;176.47;87.17;;;;;;;2.95;nan;94870.94;5094243;28;20334;-63
2022/12/23 02:20:36;;;;;;;171.45;85.00;;;;;;;3.14;nan;94876.66;5094486;28;20271;-62
2022/12/23 02:23:37;;;;;;;179.95;86.15;;;;;;;3.21;nan;94893.34;5093844;28;20206;-62
2022/12/23 02:26:24;;;;;;;162.52;78.90;;;;;;;3.10;nan;94885.88;5091152;28;20282;-62
2022/12/23 02:29:19;;;;;;;162.05;82.63;;;;;;;3.13;nan;94880.84;5035850;28;21136;-61
2022/12/23 02:31:55;;;;;;;164.17;77.97;;;;;;;3.13;nan;94888.38;5052874;28;20284;-61
2022/12/23 02:34:34;;;;;;;151.27;69.90;;;;;;;2.84;nan;94862.66;5048044;28;20225;-62
2022/12/23 02:37:08;;;;;;;154.27;66.10;;;;;;;2.90;nan;94876.00;5052307;28;20576;-62
2022/12/23 02:39:41;;;;;;;153.67;69.50;;;;;;;2.96;nan;94872.63;5049969;28;20306;-61
2022/12/23 02:42:12;;;;;;;151.73;71.70;;;;;;;2.93;nan;94885.19;5052762;28;20205;-61
2022/12/23 02:44:47;;;;;;;148.38;71.28;;;;;;;2.93;nan;94892.72;5050956;28;20225;-61
2022/12/23 02:47:20;;;;;;;153.93;69.20;;;;;;;2.93;nan;94887.69;5052051;28;20261;-61
2022/12/23 02:49:52;;;;;;;144.10;73.40;;;;;;;3.00;nan;94889.28;5048833;28;20778;-62
2022/12/23 02:52:24;;;;;;;153.73;73.00;;;;;;;2.95;nan;94886.00;5051381;28;20216;-61
2022/12/23 02:54:55;;;;;;;135.43;66.70;;;;;;;2.82;nan;94889.44;5050505;28;20228;-61
2022/12/23 02:57:27;;;;;;;143.80;70.80;;;;;;;2.80;nan;94891.13;5050271;28;20779;-64
2022/12/23 02:59:56;;;;;;;146.73;70.30;;;;;;;2.84;nan;94892.78;5050250;28;20194;-62
2022/12/23 03:02:25;;;;;;;154.30;72.47;;;;;;;2.81;nan;94883.59;5052128;28;20225;-62
2022/12/23 03:04:51;;;;;;;151.83;69.67;;;;;;;2.77;nan;94893.66;5049939;28;21507;-62
2022/12/23 03:07:21;;;;;;;142.90;71.83;;;;;;;2.66;nan;94884.53;5050616;28;20282;-62
2022/12/23 03:09:59;;;;;;;154.53;70.37;;;;;;;2.56;nan;94877.88;5047612;28;20253;-61
2022/12/23 03:12:35;;;;;;;143.27;72.40;;;;;;;2.61;nan;94878.69;5051572;28;20194;-60
2022/12/23 03:15:17;;;;;;;147.97;72.27;;;;;;;2.68;nan;94877.00;5050718;28;20235;-61
2022/12/23 03:17:58;;;;;;;147.90;71.00;;;;;;;2.70;nan;94863.59;5051861;28;20208;-62
2022/12/23 03:20:28;;;;;;;151.93;73.75;;;;;;;2.68;nan;94880.34;5049080;28;20694;-61
2022/12/23 03:23:02;;;;;;;162.85;75.47;;;;;;;2.71;nan;94874.47;5049810;28;20581;-61
2022/12/23 03:25:34;;;;;;;147.18;74.15;;;;;;;2.68;nan;94862.78;5050192;28;20206;-61
2022/12/23 03:28:07;;;;;;;147.45;73.45;;;;;;;2.71;nan;94879.47;5049144;28;20209;-60
2022/12/23 03:30:35;;;;;;;148.95;74.00;;;;;;;2.73;nan;94881.13;5049642;28;20275;-61
2022/12/23 03:33:08;;;;;;;139.98;72.60;;;;;;;2.72;nan;94878.66;5049475;28;20255;-63
2022/12/23 03:35:40;;;;;;;141.93;67.73;;;;;;;2.84;nan;94882.72;5051245;28;20209;-61
2022/12/23 03:38:08;;;;;;;152.53;72.03;;;;;;;2.91;nan;94880.19;5049250;28;20209;-62
2022/12/23 03:40:40;;;;;;;138.20;65.03;;;;;;;3.03;nan;94881.75;5049381;28;20202;-61
2022/12/23 03:43:13;;;;;;;135.48;65.05;;;;;;;3.06;nan;94874.19;5050185;28;20217;-61
2022/12/23 03:45:45;;;;;;;133.73;64.03;;;;;;;3.18;nan;94868.25;5050438;28;20197;-61
2022/12/23 03:48:19;;;;;;;127.13;62.43;;;;;;;3.23;nan;94882.41;5049709;28;20751;-62
2022/12/23 03:50:51;;;;;;;139.30;62.60;;;;;;;3.23;nan;94892.47;5049124;28;20220;-63
2022/12/23 03:53:24;;;;;;;115.77;57.57;;;;;;;3.30;nan;94879.00;5050291;28;20569;-62
2022/12/23 03:55:55;;;;;;;122.38;57.08;;;;;;;3.35;nan;94882.31;5050537;28;20204;-61
2022/12/23 03:58:34;;;;;;;110.55;56.53;;;;;;;3.35;nan;94877.31;5050253;28;22055;-61
2022/12/23 04:01:12;;;;;;;100.60;54.10;;;;;;;3.33;nan;94868.94;5048575;28;20194;-61
2022/12/23 04:03:49;;;;;;;109.63;54.22;;;;;;;3.25;nan;94873.19;5049840;28;20209;-61
2022/12/23 04:06:19;;;;;;;110.47;52.33;;;;;;;3.21;nan;94871.59;5051200;28;20193;-62
2022/12/23 04:08:48;;;;;;;107.17;52.07;;;;;;;3.18;nan;94884.16;5050793;28;20202;-60
2022/12/23 04:11:15;;;;;;;99.97;51.95;;;;;;;3.26;nan;94884.91;5049270;28;20244;-61
2022/12/23 04:13:42;;;;;;;115.73;58.13;;;;;;;3.22;nan;94873.22;5050811;28;20206;-62
2022/12/23 04:16:09;;;;;;;121.67;57.77;;;;;;;3.20;nan;94874.94;5049994;28;20305;-60
2022/12/23 04:18:36;;;;;;;111.53;56.33;;;;;;;3.25;nan;94879.91;5050223;28;21883;-62
2022/12/23 04:21:05;;;;;;;113.33;57.50;;;;;;;3.27;nan;94881.56;5046820;28;20638;-61
2022/12/23 04:23:31;;;;;;;115.10;56.57;;;;;;;3.37;nan;94875.63;5049822;28;20212;-61
2022/12/23 04:25:58;;;;;;;111.50;56.85;;;;;;;3.39;nan;94878.13;5049635;28;20205;-62
2022/12/23 04:28:25;;;;;;;106.77;56.63;;;;;;;3.34;nan;94875.63;5048640;28;20637;-61
2022/12/23 04:30:51;;;;;;;112.70;57.13;;;;;;;3.24;nan;94874.03;5048808;28;20374;-61
2022/12/23 04:33:18;;;;;;;120.15;55.10;;;;;;;3.23;nan;94872.38;5047953;28;20325;-61
2022/12/23 04:35:45;;;;;;;105.63;54.77;;;;;;;3.28;nan;94868.16;5048899;28;20259;-61
2022/12/23 04:38:13;;;;;;;117.00;53.97;;;;;;;3.31;nan;94883.19;5049974;28;20774;-61
2022/12/23 04:40:40;;;;;;;109.68;55.22;;;;;;;3.30;nan;94883.22;5048338;28;20205;-61
2022/12/23 04:43:06;;;;;;;103.95;53.13;;;;;;;3.39;nan;94876.44;5048372;28;20208;-61
2022/12/23 04:45:33;;;;;;;107.53;53.50;;;;;;;3.43;nan;94879.75;5049020;28;20213;-63
2022/12/23 04:48:00;;;;;;;112.93;53.83;;;;;;;3.54;nan;94887.19;5048966;28;20592;-60
2022/12/23 04:50:27;;;;;;;100.30;54.47;;;;;;;3.57;nan;94879.63;5048773;28;20224;-62
2022/12/23 04:52:53;;;;;;;100.30;52.63;;;;;;;3.48;nan;94877.19;5048761;28;20206;-63
2022/12/23 04:55:21;;;;;;;101.37;54.10;;;;;;;3.53;nan;94876.28;5050004;28;20282;-60
2022/12/23 04:57:48;;;;;;;104.20;53.38;;;;;;;3.57;nan;94892.19;5049012;28;20679;-60
2022/12/23 05:00:16;;;;;;;112.57;58.78;;;;;;;3.54;nan;94889.69;5048502;28;21018;-60
2022/12/23 05:02:42;;;;;;;116.47;56.20;;;;;;;3.56;nan;94898.88;5047236;28;20629;-60
2022/12/23 05:05:09;;;;;;;111.80;57.35;;;;;;;3.41;nan;94886.47;5049575;28;20228;-61
2022/12/23 05:07:36;;;;;;;126.53;62.95;;;;;;;3.42;nan;94908.22;5049558;28;20212;-60
2022/12/23 05:10:03;;;;;;;121.28;59.45;;;;;;;3.41;nan;94901.53;5046292;28;20611;-60
2022/12/23 05:12:31;;;;;;;114.05;58.42;;;;;;;3.56;nan;94908.09;5048891;28;20212;-61
2022/12/23 05:14:58;;;;;;;115.43;57.17;;;;;;;3.52;nan;94898.91;5048751;28;20596;-60
2022/12/23 05:17:25;;;;;;;112.27;55.73;;;;;;;3.38;nan;94901.56;5048926;28;20198;-60
2022/12/23 05:19:53;;;;;;;111.37;58.53;;;;;;;3.45;nan;94903.19;5048517;28;20612;-61
2022/12/23 05:22:19;;;;;;;115.20;58.97;;;;;;;3.48;nan;94902.31;5047007;28;20877;-60
2022/12/23 05:24:47;;;;;;;117.68;59.50;;;;;;;3.45;nan;94908.22;5046906;28;20201;-61
2022/12/23 05:27:13;;;;;;;117.38;57.58;;;;;;;3.45;nan;94907.38;5049528;28;20205;-62
2022/12/23 05:29:41;;;;;;;122.60;59.25;;;;;;;3.46;nan;94906.53;5048585;28;20651;-63
2022/12/23 05:32:08;;;;;;;157.52;79.40;;;;;;;3.57;nan;94914.78;5047079;28;21055;-62
2022/12/23 05:34:35;;;;;;;167.10;83.65;;;;;;;3.59;nan;94915.63;5047600;28;20225;-61
2022/12/23 05:37:01;;;;;;;150.80;69.75;;;;;;;3.61;nan;94913.91;5048327;28;20209;-62
2022/12/23 05:39:28;;;;;;;131.05;61.95;;;;;;;3.63;nan;94912.22;5049258;28;20210;-61
2022/12/23 05:41:55;;;;;;;117.07;57.63;;;;;;;3.73;nan;94914.63;5047125;28;20197;-61
2022/12/23 05:44:22;;;;;;;118.28;59.53;;;;;;;3.64;nan;94903.84;5047394;28;20247;-62
2022/12/23 05:46:50;;;;;;;119.63;58.92;;;;;;;3.77;nan;94902.84;5047708;28;20259;-62
2022/12/23 05:49:16;;;;;;;116.22;60.63;;;;;;;3.68;nan;94900.47;5047652;28;22034;-62
2022/12/23 05:51:43;;;;;;;113.80;62.00;;;;;;;3.68;nan;94908.84;5047311;28;20714;-62
2022/12/23 05:54:10;;;;;;;121.53;60.85;;;;;;;3.76;nan;94913.75;5047900;28;20209;-61
2022/12/23 05:56:36;;;;;;;125.78;59.05;;;;;;;3.83;nan;94920.41;5046041;28;20709;-61
2022/12/23 05:59:03;;;;;;;137.35;61.15;;;;;;;3.75;nan;94912.09;5046969;28;20290;-61
2022/12/23 06:01:30;;;;;;;119.80;59.78;;;;;;;3.67;nan;94897.13;5048126;28;20756;-61
2022/12/23 06:03:58;;;;;;;115.60;56.97;;;;;;;3.70;nan;94906.31;5048347;28;20197;-62
2022/12/23 06:06:25;;;;;;;107.67;56.80;;;;;;;3.74;nan;94901.22;5047186;28;20210;-61
2022/12/23 06:08:51;;;;;;;112.82;57.30;;;;;;;3.72;nan;94902.91;5047293;28;20202;-62
2022/12/23 06:11:18;;;;;;;117.00;59.27;;;;;;;3.78;nan;94907.03;5047771;28;20725;-63
2022/12/23 06:13:45;;;;;;;116.23;61.23;;;;;;;3.75;nan;94907.91;5047538;28;20198;-64
2022/12/23 06:16:12;;;;;;;109.07;58.55;;;;;;;3.84;nan;94913.69;5047117;28;20206;-62
2022/12/23 06:18:38;;;;;;;119.67;61.97;;;;;;;3.87;nan;94906.97;5047380;28;20274;-62
2022/12/23 06:21:06;;;;;;;124.05;68.63;;;;;;;3.84;nan;94907.00;5047432;28;20222;-62
2022/12/23 06:23:33;;;;;;;130.60;71.37;;;;;;;3.89;nan;94915.31;5048327;28;20209;-61
2022/12/23 06:26:01;;;;;;;130.23;69.28;;;;;;;4.03;nan;94905.09;5046605;28;20213;-62
2022/12/23 06:28:28;;;;;;;125.78;66.50;;;;;;;4.16;nan;94915.88;5046495;28;20213;-61
2022/12/23 06:30:55;;;;;;;125.85;67.57;;;;;;;4.03;nan;94903.44;5048011;28;20229;-61
2022/12/23 06:33:22;;;;;;;129.35;67.30;;;;;;;4.21;nan;94926.69;5045966;28;20221;-61
2022/12/23 06:35:49;;;;;;;126.00;68.00;;;;;;;4.03;nan;94922.69;5045803;28;20269;-62
2022/12/23 06:38:17;;;;;;;127.38;69.15;;;;;;;3.92;nan;94915.28;5047704;28;20198;-63
2022/12/23 06:40:44;;;;;;;131.68;68.38;;;;;;;4.00;nan;94918.53;5047856;28;20218;-62
2022/12/23 06:43:12;;;;;;;145.10;77.00;;;;;;;4.10;nan;94930.19;5046902;28;20205;-61
2022/12/23 06:45:39;;;;;;;135.95;76.10;;;;;;;4.12;nan;94936.88;5047345;28;20244;-61
2022/12/23 06:48:06;;;;;;;119.90;63.80;;;;;;;4.10;nan;94925.16;5047514;28;21330;-62
2022/12/23 06:50:33;;;;;;;120.00;60.40;;;;;;;3.95;nan;94929.50;5047839;28;20205;-61
2022/12/23 06:52:59;;;;;;;114.82;62.42;;;;;;;3.86;nan;94925.41;5048577;28;20291;-62
2022/12/23 06:55:27;;;;;;;118.53;61.95;;;;;;;3.81;nan;94919.59;5047581;28;20674;-63
2022/12/23 06:57:54;;;;;;;101.27;57.13;;;;;;;3.98;nan;94927.78;5050719;28;20205;-62
2022/12/23 07:00:21;;;;;;;124.15;61.63;;;;;;;4.06;nan;94927.69;5052249;28;20267;-61
2022/12/23 07:02:48;;;;;;;95.78;52.15;;;;;;;4.00;nan;94927.75;5050268;28;20205;-62
2022/12/23 07:05:15;;;;;;;97.35;51.50;;;;;;;4.03;nan;94932.75;5050539;28;20683;-61
2022/12/23 07:07:42;;;;;;;96.80;48.17;;;;;;;4.08;nan;94931.88;5050564;28;20205;-61
2022/12/23 07:10:09;;;;;;;90.10;48.55;;;;;;;4.06;nan;94927.69;5051711;28;20744;-62
2022/12/23 07:12:38;;;;;;;92.78;47.85;;;;;;;4.01;nan;94920.19;5050947;28;20230;-62
2022/12/23 07:15:06;;;;;;;87.55;44.42;;;;;;;4.17;nan;94935.16;5050890;28;20328;-61
2022/12/23 07:17:33;;;;;;;90.47;47.45;;;;;;;4.23;nan;94940.91;5049276;28;20213;-60
2022/12/23 07:19:59;;;;;;;97.03;49.25;;;;;;;4.34;nan;94939.13;5051101;28;20209;-60
2022/12/23 07:22:26;;;;;;;96.90;49.67;;;;;;;4.17;nan;94935.16;5050697;28;20201;-60
2022/12/23 07:24:53;;;;;;;102.38;51.28;;;;;;;4.04;nan;94935.25;5050506;28;20205;-60
2022/12/23 07:27:20;;;;;;;94.30;50.03;;;;;;;3.79;nan;94938.88;5049698;28;20212;-61
2022/12/23 07:29:48;;;;;;;105.95;53.58;;;;;;;3.88;nan;94941.31;5050434;28;20204;-61
2022/12/23 07:32:14;;;;;;;93.15;45.90;;;;;;;4.09;nan;94943.59;5051088;28;20225;-61
2022/12/23 07:34:41;;;;;;;94.40;48.05;;;;;;;4.56;nan;94939.69;5050046;28;20221;-64
2022/12/23 07:37:08;;;;;;;94.63;50.75;;;;;;;5.48;nan;94940.06;5049284;28;20840;-61
2022/12/23 07:39:35;;;;;;;82.47;47.97;;;;;;;6.56;nan;94944.88;5050131;28;20214;-63
2022/12/23 07:42:02;;;;;;;92.60;47.97;;;;;;;8.09;nan;94943.03;5050599;28;20300;-63
2022/12/23 07:44:28;;;;;;;80.25;44.83;;;;;;;9.27;nan;94948.19;5050350;28;20205;-61
2022/12/23 07:46:56;;;;;;;88.10;47.42;;;;;;;10.33;nan;94938.84;5051004;28;20205;-62
2022/12/23 07:49:23;;;;;;;92.70;47.55;;;;;;;10.84;nan;94925.16;5049510;28;20872;-61
2022/12/23 07:51:50;;;;;;;87.80;48.00;;;;;;;10.92;nan;94940.94;5049576;28;20229;-62
2022/12/23 07:54:17;;;;;;;85.45;47.97;;;;;;;11.07;nan;94937.84;5050598;28;20683;-60
2022/12/23 07:56:43;;;;;;;108.35;58.63;;;;;;;11.53;nan;94942.00;5051461;28;20686;-62
2022/12/23 07:59:10;;;;;;;110.05;58.00;;;;;;;12.16;nan;94942.88;5048312;28;20210;-61
2022/12/23 08:01:37;;;;;;;106.00;56.55;;;;;;;12.49;nan;94938.06;5051619;28;20209;-62
2022/12/23 08:04:05;;;;;;;99.28;58.15;;;;;;;12.49;nan;94934.69;5050186;28;20641;-59
2022/12/23 08:06:35;;;;;;;96.28;57.38;;;;;;;12.02;nan;94940.06;5050015;28;20210;-62
2022/12/23 08:09:02;;;;;;;109.43;57.53;;;;;;;11.47;nan;94916.78;5045206;28;20206;-61
2022/12/23 08:11:28;;;;;;;102.72;55.97;;;;;;;11.55;nan;94940.22;5049984;28;20705;-62
2022/12/23 08:13:55;;;;;;;107.15;57.20;;;;;;;11.50;nan;94937.03;5049492;28;20198;-62
2022/12/23 08:16:22;;;;;;;102.55;58.80;;;;;;;11.22;nan;94944.06;5050378;28;20209;-61
2022/12/23 08:18:49;;;;;;;107.63;62.25;;;;;;;10.93;nan;94937.53;5049787;28;20201;-63
2022/12/23 08:21:19;;;;;;;104.38;60.17;;;;;;;10.69;nan;94951.13;5048921;28;20213;-61
2022/12/23 08:23:47;;;;;;;101.47;60.03;;;;;;;10.30;nan;94955.88;5049813;28;20841;-62
2022/12/23 08:26:17;;;;;;;102.85;60.08;;;;;;;9.99;nan;94954.34;5050548;28;20209;-61
2022/12/23 08:28:45;;;;;;;116.88;63.45;;;;;;;9.85;nan;94953.97;5048662;28;20228;-61
2022/12/23 08:31:14;;;;;;;100.53;58.75;;;;;;;9.80;nan;94954.13;5049545;28;20782;-62
2022/12/23 08:33:42;;;;;;;108.07;61.08;;;;;;;9.71;nan;94948.50;5049063;28;20654;-60
2022/12/23 08:36:12;;;;;;;104.88;55.88;;;;;;;9.66;nan;94945.28;5050529;28;20202;-61
2022/12/23 08:38:40;;;;;;;104.95;54.00;;;;;;;9.65;nan;94949.50;5049368;28;20671;-61
2022/12/23 08:41:09;;;;;;;100.85;53.38;;;;;;;9.85;nan;94942.13;5048215;28;20835;-62
2022/12/23 08:43:35;;;;;;;93.10;52.80;;;;;;;10.10;nan;94947.22;5049222;28;20701;-61
2022/12/23 08:46:02;;;;;;;89.82;51.92;;;;;;;10.33;nan;94948.16;5050163;28;20259;-61
2022/12/23 08:48:29;;;;;;;94.80;53.78;;;;;;;10.61;nan;94946.31;5048061;28;20248;-61
2022/12/23 08:50:55;;;;;;;98.07;52.95;;;;;;;10.80;nan;94947.31;5047158;28;20205;-60
2022/12/23 08:53:22;;;;;;;104.13;53.55;;;;;;;10.73;nan;94948.41;5048841;28;20794;-61
2022/12/23 08:55:50;;;;;;;99.90;50.78;;;;;;;10.38;nan;94948.84;5047236;28;20883;-61
2022/12/23 08:58:17;;;;;;;96.95;52.30;;;;;;;9.99;nan;94941.66;5049338;28;20210;-61
2022/12/23 09:00:44;;;;;;;96.75;51.97;;;;;;;9.85;nan;94941.28;5047552;28;20218;-61
2022/12/23 09:03:11;;;;;;;102.70;51.78;;;;;;;9.75;nan;94939.91;5049255;28;20205;-61
2022/12/23 09:05:42;;;;;;;100.90;53.88;;;;;;;9.50;nan;94943.22;5049204;28;20729;-60
2022/12/23 09:08:09;;;;;;;100.13;55.95;;;;;;;9.15;nan;94928.28;5048574;28;20208;-63
2022/12/23 09:10:41;;;;;;;103.10;54.28;;;;;;;9.16;nan;94937.53;5047390;28;20194;-62
2022/12/23 09:13:09;;;;;;;93.07;52.10;;;;;;;8.92;nan;94923.03;5048208;28;20315;-62
2022/12/23 09:15:40;;;;;;;91.38;53.13;;;;;;;9.07;nan;94930.22;5047643;28;20241;-61
2022/12/23 09:18:07;;;;;;;95.03;52.90;;;;;;;9.18;nan;94938.31;5048621;28;21325;-61
2022/12/23 09:20:34;;;;;;;92.57;52.80;;;;;;;9.30;nan;94940.47;5047009;28;20224;-62
2022/12/23 09:23:01;;;;;;;102.35;53.17;;;;;;;9.48;nan;94934.84;5049123;28;20208;-61
2022/12/23 09:25:28;;;;;;;96.78;52.97;;;;;;;9.60;nan;94935.34;5048696;28;20206;-61
2022/12/23 09:27:55;;;;;;;106.00;53.67;;;;;;;9.78;nan;94929.66;5046587;28;20210;-61
2022/12/23 09:30:23;;;;;;;87.22;51.13;;;;;;;9.59;nan;94903.25;5047543;28;20641;-62
2022/12/23 09:32:50;;;;;;;90.93;52.03;;;;;;;9.81;nan;94942.25;5047706;28;20217;-62
2022/12/23 09:35:17;;;;;;;94.72;53.80;;;;;;;9.48;nan;94916.25;5049201;28;20652;-61
2022/12/23 09:37:44;;;;;;;104.70;57.65;;;;;;;9.40;nan;94939.31;5048064;28;20674;-61
2022/12/23 09:40:12;;;;;;;110.25;58.13;;;;;;;9.25;nan;94926.28;5047849;28;20253;-61
2022/12/23 09:42:57;;;;;;;105.05;60.65;;;;;;;9.23;nan;94930.56;5047384;28;20693;-61
2022/12/23 09:45:44;;;;;;;113.10;64.38;;;;;;;9.18;nan;94931.53;5047151;28;20705;-61
2022/12/23 09:48:17;;;;;;;113.53;62.33;;;;;;;9.15;nan;94930.81;5048542;28;20211;-61
2022/12/23 09:50:44;;;;;;;120.85;66.22;;;;;;;9.11;nan;94936.84;5047138;28;20270;-61
2022/12/23 09:53:15;;;;;;;124.47;65.93;;;;;;;9.07;nan;94930.22;5047642;28;20316;-61
2022/12/23 09:55:49;;;;;;;120.20;63.65;;;;;;;9.03;nan;94933.72;5048297;28;20217;-62
2022/12/23 09:58:24;;;;;;;124.55;67.13;;;;;;;8.97;nan;94928.81;5048171;28;20579;-62
2022/12/23 10:01:06;;;;;;;126.65;69.50;;;;;;;9.00;nan;94933.78;5048112;28;20212;-62
2022/12/23 10:03:41;;;;;;;113.57;65.28;;;;;;;8.97;nan;94932.19;5047727;28;20205;-61
2022/12/23 10:06:15;;;;;;;126.43;67.38;;;;;;;9.07;nan;94932.75;5046873;28;21939;-62
2022/12/23 10:08:44;;;;;;;122.00;67.90;;;;;;;9.10;nan;94919.97;5048196;28;20217;-61
2022/12/23 10:11:16;;;;;;;141.63;70.13;;;;;;;9.25;nan;94922.03;5046896;28;20217;-61
2022/12/23 10:13:47;;;;;;;126.47;70.05;;;;;;;9.41;nan;94909.69;5046606;28;20218;-62
2022/12/23 10:16:19;;;;;;;140.25;73.95;;;;;;;9.70;nan;94912.16;5048085;28;20305;-64
2022/12/23 10:18:53;;;;;;;136.48;72.40;;;;;;;9.82;nan;94910.94;5048969;28;20250;-62
2022/12/23 10:21:29;;;;;;;133.45;71.68;;;;;;;9.77;nan;94907.72;5046225;28;20725;-61
2022/12/23 10:23:56;;;;;;;120.90;70.97;;;;;;;9.64;nan;94911.53;5046930;28;20205;-60
2022/12/23 10:26:25;;;;;;;125.15;68.78;;;;;;;9.61;nan;94902.31;5048317;28;20205;-61
2022/12/23 10:29:16;;;;;;;126.20;69.80;;;;;;;9.64;nan;94906.47;5046414;28;20201;-62
2022/12/23 10:31:53;;;;;;;136.25;69.85;;;;;;;9.85;nan;94900.69;5049566;28;20201;-61
2022/12/23 10:34:24;;;;;;;128.25;70.15;;;;;;;10.03;nan;94902.59;5051677;28;20295;-61
2022/12/23 10:36:58;;;;;;;142.50;76.15;;;;;;;10.14;nan;94887.84;5052118;28;20619;-61
2022/12/23 10:39:36;;;;;;;125.50;71.10;;;;;;;10.27;nan;94892.50;5051414;28;20693;-60
2022/12/23 10:42:12;;;;;;;121.43;68.38;;;;;;;10.43;nan;94880.91;5050587;28;20205;-62
2022/12/23 10:45:13;;;;;;;121.95;69.15;;;;;;;10.62;nan;94881.09;5050961;28;20670;-62
2022/12/23 10:48:02;;;;;;;117.50;66.78;;;;;;;10.72;nan;94884.94;5051070;28;20202;-61
2022/12/23 10:50:47;;;;;;;119.93;66.10;;;;;;;10.70;nan;94884.16;5051930;28;20213;-61
2022/12/23 10:53:23;;;;;;;111.97;68.22;;;;;;;10.73;nan;94881.50;5051670;28;20225;-62
2022/12/23 10:55:50;;;;;;;120.75;64.82;;;;;;;10.87;nan;94877.59;5051124;28;20210;-61
2022/12/23 10:58:18;;;;;;;116.80;64.55;;;;;;;10.79;nan;94871.94;5052165;28;20206;-62
2022/12/23 11:00:49;;;;;;;123.68;62.17;;;;;;;10.57;nan;94866.00;5050726;28;20212;-60
2022/12/23 11:03:22;;;;;;;113.10;62.28;;;;;;;10.55;nan;94867.78;5047999;28;20202;-60
2022/12/23 11:05:52;;;;;;;110.32;61.72;;;;;;;10.49;nan;94873.06;5049924;28;20213;-62
2022/12/23 11:08:21;;;;;;;124.90;66.13;;;;;;;10.34;nan;94848.22;5051703;28;20198;-62
2022/12/23 11:10:48;;;;;;;113.35;60.60;;;;;;;10.42;nan;94867.38;5051216;28;20263;-61
2022/12/23 11:13:25;;;;;;;107.88;59.42;;;;;;;10.41;nan;94869.97;5048740;28;20690;-61
2022/12/23 11:15:52;;;;;;;107.38;58.35;;;;;;;10.27;nan;94867.09;5048748;28;20264;-60
2022/12/23 11:18:21;;;;;;;100.65;55.65;;;;;;;10.23;nan;94863.84;5049948;28;20206;-61
2022/12/23 11:21:03;;;;;;;111.40;56.53;;;;;;;9.98;nan;94861.28;5051260;28;20208;-60
2022/12/23 11:23:32;;;;;;;113.32;55.08;;;;;;;9.96;nan;94863.06;5051537;28;20203;-62
2022/12/23 11:26:05;;;;;;;106.20;54.20;;;;;;;9.93;nan;94877.56;5047535;28;20206;-60
2022/12/23 11:28:34;;;;;;;100.15;51.42;;;;;;;9.91;nan;94877.59;5048459;28;20205;-61
2022/12/23 11:31:04;;;;;;;93.93;51.80;;;;;;;9.78;nan;94876.38;5050679;28;20209;-61
2022/12/23 11:33:35;;;;;;;90.63;52.13;;;;;;;9.66;nan;94881.84;5050759;28;20710;-62
2022/12/23 11:36:06;;;;;;;97.80;51.88;;;;;;;9.62;nan;94877.78;5050446;28;20204;-62
2022/12/23 11:38:35;;;;;;;100.35;53.03;;;;;;;9.67;nan;94876.72;5048927;28;20776;-61
2022/12/23 11:41:04;;;;;;;92.90;50.75;;;;;;;9.62;nan;94876.06;5049836;28;20213;-61
2022/12/23 11:43:32;;;;;;;100.95;50.08;;;;;;;9.63;nan;94882.78;5051399;28;20622;-62
2022/12/23 11:46:18;;;;;;;93.43;50.60;;;;;;;9.63;nan;94879.44;5048724;28;20210;-60
2022/12/23 11:48:47;;;;;;;88.15;49.63;;;;;;;9.79;nan;94870.41;5050195;28;20205;-61
2022/12/23 11:51:25;;;;;;;85.72;48.63;;;;;;;9.68;nan;94868.22;5051491;28;20558;-62
2022/12/23 11:54:00;;;;;;;88.22;48.75;;;;;;;9.75;nan;94863.78;5050238;28;20316;-62
2022/12/23 11:56:27;;;;;;;96.80;48.92;;;;;;;9.78;nan;94858.63;5049209;28;20208;-63
2022/12/23 11:59:01;;;;;;;89.25;47.78;;;;;;;9.89;nan;94861.63;5049501;28;20539;-63
2022/12/23 12:01:28;;;;;;;87.35;45.95;;;;;;;10.04;nan;94863.63;5050571;28;20203;-61
2022/12/23 12:04:00;;;;;;;83.35;46.45;;;;;;;10.24;nan;94847.72;5050400;28;22349;-61
2022/12/23 12:06:27;;;;;;;77.28;42.40;;;;;;;10.20;nan;94858.88;5048932;28;20209;-61
2022/12/23 12:08:57;;;;;;;76.93;42.40;;;;;;;10.32;nan;94845.75;5049736;28;20767;-62
2022/12/23 12:11:28;;;;;;;70.20;38.63;;;;;;;10.42;nan;94846.22;5049480;28;20201;-60